Terminal Aerodrome Forecast
Issued by NWS

Home | Current Version | Previous Version | Text Only | Print | Product List | Glossary Off
Versions: 1 2 3 4 5 6 7 8 9 10 11 12 13 14

000
FTUS43 KFGF 181100
TAFBJI
TAF
KBJI 181120Z 1812/1912 10005KT P6SM SCT100
     FM181600 12012KT P6SM BKN080
     FM182100 12015KT P6SM BKN100=

USA.gov is the U.S. government's official web portal to all federal, state and local government web resources and services.